Time;durP1;ratioP1;P1;durP2;ratioP2;P2;SDS_P1;SDS_P2;PMS_P1;PMS_P2;Temp;Humidity;BMP_temperature;BMP_pressure;BME280_temperature;BME280_humidity;BME280_pressure;Samples;Min_cycle;Max_cycle;Signal;HPM_P1;HPM_P2
2023/01/30 00:00:32;;;;;;;26.10;13.57;;;-1.50;99.90;;;;;;5066163;28;20177;-85
2023/01/30 00:02:57;;;;;;;27.23;13.80;;;-1.50;99.90;;;;;;5068819;28;20553;-85
2023/01/30 00:05:23;;;;;;;26.83;14.50;;;-1.50;99.90;;;;;;5069169;28;20180;-84
2023/01/30 00:07:49;;;;;;;29.20;14.30;;;-1.50;99.90;;;;;;5067574;28;20588;-85
2023/01/30 00:10:15;;;;;;;29.10;14.33;;;-1.50;99.90;;;;;;5069022;28;20644;-86
2023/01/30 00:12:40;;;;;;;26.93;14.67;;;-1.50;99.90;;;;;;5070847;28;20205;-85
2023/01/30 00:15:07;;;;;;;26.40;13.07;;;-1.50;99.90;;;;;;5071563;28;20241;-85
2023/01/30 00:17:32;;;;;;;25.53;14.00;;;-1.40;99.90;;;;;;5075813;28;20170;-87
2023/01/30 00:19:58;;;;;;;26.40;14.33;;;-1.50;99.90;;;;;;5057510;28;20649;-84
2023/01/30 00:22:23;;;;;;;26.07;13.97;;;-1.50;99.90;;;;;;5053312;28;20557;-84
2023/01/30 00:24:49;;;;;;;28.30;14.50;;;-1.50;99.90;;;;;;5054405;28;20223;-84
2023/01/30 00:27:15;;;;;;;25.30;13.80;;;-1.60;99.90;;;;;;5054406;28;20245;-85
2023/01/30 00:29:41;;;;;;;28.40;14.37;;;-1.60;99.90;;;;;;5052677;28;20174;-84
2023/01/30 00:32:07;;;;;;;24.83;13.70;;;-1.60;99.90;;;;;;5053122;28;20180;-84
2023/01/30 00:34:32;;;;;;;27.87;15.20;;;-1.70;99.90;;;;;;5054706;28;20200;-84
2023/01/30 00:36:58;;;;;;;22.97;12.80;;;-1.70;99.90;;;;;;5054763;28;20644;-84
2023/01/30 00:39:24;;;;;;;24.73;13.10;;;-1.70;99.90;;;;;;5053455;28;20182;-84
2023/01/30 00:47:18;;;;;;;23.23;11.93;;;-1.60;99.90;;;;;;5054528;28;20202;-84
2023/01/30 00:49:43;;;;;;;21.80;12.17;;;-1.50;99.90;;;;;;5053220;28;20182;-84
2023/01/30 00:52:09;;;;;;;25.13;13.60;;;-1.50;99.90;;;;;;5054817;28;20171;-84
2023/01/30 00:54:34;;;;;;;25.27;13.27;;;-1.50;99.90;;;;;;5054509;28;20185;-84
2023/01/30 00:57:00;;;;;;;26.63;13.53;;;-1.50;99.90;;;;;;5053020;28;20178;-86
2023/01/30 00:59:27;;;;;;;22.83;12.70;;;-1.50;99.90;;;;;;5053396;28;20260;-84
2023/01/30 01:01:52;;;;;;;24.77;13.23;;;-1.50;99.90;;;;;;5052873;28;20213;-85
2023/01/30 01:04:18;;;;;;;25.17;13.63;;;-1.50;99.90;;;;;;5054839;28;20194;-84
2023/01/30 01:06:43;;;;;;;25.53;13.40;;;-1.50;99.90;;;;;;5053830;28;20204;-84
2023/01/30 01:09:09;;;;;;;24.57;12.63;;;-1.50;99.90;;;;;;5053279;28;20177;-84
2023/01/30 01:11:34;;;;;;;22.43;11.97;;;-1.50;99.90;;;;;;5053775;28;20174;-84
2023/01/30 01:14:01;;;;;;;24.53;13.20;;;-1.40;99.90;;;;;;5054651;28;20212;-84
2023/01/30 01:16:29;;;;;;;23.70;12.90;;;-1.40;99.90;;;;;;5054999;28;20193;-84
2023/01/30 01:18:55;;;;;;;21.67;11.93;;;-1.40;99.90;;;;;;5056190;28;20188;-84
2023/01/30 01:21:21;;;;;;;20.47;11.43;;;-1.40;99.90;;;;;;5055159;28;20181;-84
2023/01/30 01:23:51;;;;;;;22.47;12.13;;;-1.30;99.90;;;;;;5053752;28;20201;-84
2023/01/30 01:26:17;;;;;;;23.77;12.20;;;-1.30;99.90;;;;;;5053927;28;20189;-84
2023/01/30 01:28:43;;;;;;;21.43;11.07;;;-1.40;99.90;;;;;;5055643;28;20177;-84
2023/01/30 01:31:14;;;;;;;21.87;12.33;;;-1.40;99.90;;;;;;5055311;28;20303;-84
2023/01/30 01:33:40;;;;;;;23.07;12.33;;;-1.40;99.90;;;;;;5053430;28;20202;-84
2023/01/30 01:36:06;;;;;;;25.97;13.03;;;-1.40;99.90;;;;;;5071190;28;20183;-85
2023/01/30 01:38:32;;;;;;;25.13;13.17;;;-1.30;99.90;;;;;;5055400;28;20181;-85
2023/01/30 01:41:01;;;;;;;22.50;13.00;;;-1.30;99.90;;;;;;5070704;28;20330;-85
2023/01/30 01:43:32;;;;;;;22.97;12.40;;;-1.30;99.90;;;;;;5063440;28;20222;-84
2023/01/30 01:46:07;;;;;;;22.17;12.27;;;-1.20;99.90;;;;;;5071287;28;20209;-84
2023/01/30 01:48:45;;;;;;;20.17;11.10;;;-1.20;99.90;;;;;;5077403;28;20172;-84
2023/01/30 01:51:16;;;;;;;22.90;12.13;;;-1.20;99.90;;;;;;5067988;28;20178;-84
2023/01/30 01:53:49;;;;;;;18.90;11.37;;;-1.20;99.90;;;;;;5073498;28;20188;-84
2023/01/30 01:56:17;;;;;;;17.87;10.90;;;-1.20;99.90;;;;;;5056048;28;20171;-84
2023/01/30 01:59:10;;;;;;;20.27;12.33;;;-1.20;99.90;;;;;;5058407;28;20541;-84
2023/01/30 02:01:36;;;;;;;19.83;11.30;;;-1.20;99.90;;;;;;5055299;28;20181;-84
2023/01/30 02:04:04;;;;;;;22.73;12.87;;;-1.20;99.90;;;;;;5056296;28;20322;-84
2023/01/30 02:06:31;;;;;;;23.03;12.67;;;-1.20;99.90;;;;;;5056903;28;20200;-84
2023/01/30 02:09:02;;;;;;;22.50;12.70;;;-1.20;99.90;;;;;;5063101;28;20192;-85
2023/01/30 02:11:52;;;;;;;22.73;11.97;;;-1.20;99.90;;;;;;5061018;28;20574;-84
2023/01/30 02:14:19;;;;;;;21.90;11.97;;;-1.30;99.90;;;;;;5061419;28;20195;-85
2023/01/30 02:16:46;;;;;;;18.80;11.17;;;-1.20;99.90;;;;;;5062349;28;20261;-84
2023/01/30 02:19:40;;;;;;;20.27;11.57;;;-1.20;99.90;;;;;;5075372;28;20249;-85
2023/01/30 02:22:30;;;;;;;23.83;13.23;;;-1.20;99.90;;;;;;5063822;28;20174;-86
2023/01/30 02:25:09;;;;;;;20.07;10.57;;;-1.20;99.90;;;;;;5063918;28;20483;-84
2023/01/30 02:27:53;;;;;;;22.10;12.40;;;-1.10;99.90;;;;;;5066421;28;20203;-85
2023/01/30 02:31:06;;;;;;;21.23;12.13;;;-1.10;99.90;;;;;;5064760;28;20183;-84
2023/01/30 02:34:04;;;;;;;20.90;11.70;;;-1.10;99.90;;;;;;5038997;28;20202;-84
2023/01/30 02:36:52;;;;;;;22.93;12.07;;;-1.00;99.90;;;;;;5065275;28;20179;-86
2023/01/30 02:39:51;;;;;;;23.27;13.33;;;-1.00;99.90;;;;;;5068069;28;20217;-84
2023/01/30 02:42:33;;;;;;;22.27;12.03;;;-1.00;99.90;;;;;;5066888;28;20204;-85
2023/01/30 02:45:08;;;;;;;21.47;12.73;;;-1.00;99.90;;;;;;5065759;22;20218;-82
2023/01/30 02:47:49;;;;;;;20.40;12.33;;;-1.00;99.90;;;;;;5035088;28;20237;-82
2023/01/30 02:50:46;;;;;;;23.53;13.13;;;-1.00;99.90;;;;;;5035486;28;20197;-82
2023/01/30 02:53:12;;;;;;;25.17;13.23;;;-0.90;99.90;;;;;;5009191;28;20182;-82
2023/01/30 02:55:41;;;;;;;25.23;13.73;;;-1.00;99.90;;;;;;5054891;28;20175;-82
2023/01/30 02:58:07;;;;;;;21.13;11.23;;;-1.00;99.90;;;;;;5055262;28;20756;-82
2023/01/30 03:01:18;;;;;;;22.43;12.07;;;-1.00;99.90;;;;;;5056372;28;20175;-82
2023/01/30 03:03:43;;;;;;;22.80;12.57;;;-0.90;99.90;;;;;;5051014;28;20238;-82
2023/01/30 03:06:37;;;;;;;25.35;13.40;;;-0.90;99.90;;;;;;5054106;28;20201;-82
2023/01/30 03:09:13;;;;;;;22.57;12.90;;;-0.90;99.90;;;;;;5055739;28;20398;-82
2023/01/30 03:11:57;;;;;;;23.63;12.23;;;-0.90;99.90;;;;;;5054148;28;20170;-82
2023/01/30 03:14:33;;;;;;;25.90;13.50;;;-0.80;99.90;;;;;;5054094;28;20190;-82
2023/01/30 03:17:03;;;;;;;23.83;13.23;;;-0.80;99.90;;;;;;5054257;28;20165;-83
2023/01/30 03:19:30;;;;;;;25.47;13.30;;;-0.80;99.90;;;;;;5055349;28;20207;-82
2023/01/30 03:21:55;;;;;;;23.80;13.03;;;-0.80;99.90;;;;;;5054335;28;20166;-82
2023/01/30 03:24:22;;;;;;;25.10;13.77;;;-0.80;99.90;;;;;;5053903;28;20196;-82
2023/01/30 03:27:07;;;;;;;22.70;13.00;;;-0.80;99.90;;;;;;5054865;28;20203;-82
2023/01/30 03:29:33;;;;;;;23.57;12.83;;;-0.70;99.90;;;;;;5054964;28;20246;-82
2023/01/30 03:31:58;;;;;;;25.23;12.83;;;-0.80;99.90;;;;;;5053582;28;20595;-82
2023/01/30 03:34:24;;;;;;;24.70;13.67;;;-0.70;99.90;;;;;;5053515;28;20234;-82
2023/01/30 03:36:50;;;;;;;22.20;12.67;;;-0.80;99.90;;;;;;5054525;28;20245;-82
2023/01/30 03:39:15;;;;;;;23.83;13.67;;;-0.70;99.90;;;;;;5054611;28;20198;-83
2023/01/30 03:41:41;;;;;;;25.93;12.73;;;-0.80;99.90;;;;;;5054307;28;20183;-82
2023/01/30 03:44:07;;;;;;;24.33;14.37;;;-0.70;99.90;;;;;;5053152;28;20239;-82
2023/01/30 03:46:32;;;;;;;22.33;12.37;;;-0.70;99.90;;;;;;5053229;28;20739;-82
2023/01/30 03:48:58;;;;;;;22.17;12.43;;;-0.70;99.90;;;;;;5054531;28;20542;-82
2023/01/30 03:51:24;;;;;;;25.50;13.80;;;-0.70;99.90;;;;;;5053162;28;20177;-82
2023/01/30 03:53:49;;;;;;;24.03;13.77;;;-0.70;99.90;;;;;;5054190;28;20194;-82
2023/01/30 03:56:15;;;;;;;25.03;13.60;;;-0.70;99.90;;;;;;5052877;28;20653;-82
2023/01/30 03:58:40;;;;;;;22.30;12.80;;;-0.60;99.90;;;;;;5053090;28;20176;-83
2023/01/30 04:01:06;;;;;;;24.07;11.97;;;-0.60;99.90;;;;;;5054042;28;20162;-82
2023/01/30 04:03:32;;;;;;;22.30;12.10;;;-0.60;99.90;;;;;;5053023;28;20672;-84
2023/01/30 04:05:58;;;;;;;23.47;12.40;;;-0.60;99.90;;;;;;5053005;28;20179;-83
2023/01/30 04:08:23;;;;;;;23.00;12.63;;;-0.60;99.90;;;;;;5053010;28;20207;-85
2023/01/30 04:10:49;;;;;;;20.37;11.27;;;-0.60;99.90;;;;;;5052461;28;20172;-82
2023/01/30 04:13:15;;;;;;;19.83;11.93;;;-0.60;99.90;;;;;;5053628;28;20184;-83
2023/01/30 04:15:40;;;;;;;20.57;11.70;;;-0.50;99.90;;;;;;5044327;28;20176;-82
2023/01/30 04:18:06;;;;;;;22.13;12.43;;;-0.60;99.90;;;;;;5054017;28;20660;-82
2023/01/30 04:20:31;;;;;;;23.30;11.90;;;-0.60;99.90;;;;;;5053544;28;20171;-82
2023/01/30 04:22:57;;;;;;;21.83;12.13;;;-0.60;99.90;;;;;;5052743;28;20269;-82
2023/01/30 04:25:22;;;;;;;20.47;11.93;;;-0.60;99.90;;;;;;5052461;28;20286;-83
2023/01/30 04:27:48;;;;;;;20.83;11.47;;;-0.60;99.90;;;;;;5052844;28;20210;-83
2023/01/30 04:30:14;;;;;;;19.60;11.30;;;-0.50;99.90;;;;;;5052592;28;20203;-82
2023/01/30 04:32:39;;;;;;;20.87;11.47;;;-0.40;99.90;;;;;;5053699;28;20235;-82
2023/01/30 04:35:05;;;;;;;20.03;11.57;;;-0.40;99.90;;;;;;5053276;28;20678;-82
2023/01/30 04:37:31;;;;;;;21.87;11.33;;;-0.40;99.90;;;;;;5053354;28;20180;-83
2023/01/30 04:39:56;;;;;;;23.07;11.87;;;-0.40;99.90;;;;;;5053582;28;20639;-82
2023/01/30 04:42:22;;;;;;;20.67;12.23;;;-0.40;99.90;;;;;;5052433;28;20187;-82
2023/01/30 04:44:47;;;;;;;19.47;10.47;;;-0.50;99.90;;;;;;5053082;28;20217;-82
2023/01/30 04:47:13;;;;;;;18.30;10.50;;;-0.40;99.90;;;;;;5053399;28;20684;-85
2023/01/30 04:49:38;;;;;;;20.90;10.80;;;-0.40;99.90;;;;;;5051883;28;20543;-83
2023/01/30 04:52:04;;;;;;;19.70;11.13;;;-0.40;99.90;;;;;;5052195;28;20176;-83
2023/01/30 04:54:30;;;;;;;18.43;10.37;;;-0.40;99.90;;;;;;5053209;28;20193;-83
2023/01/30 04:56:56;;;;;;;16.87;10.17;;;-0.40;99.90;;;;;;5053397;28;20238;-82
2023/01/30 04:59:22;;;;;;;21.27;11.23;;;-0.40;99.90;;;;;;5052072;28;20186;-83
2023/01/30 05:01:47;;;;;;;18.73;9.80;;;-0.40;99.90;;;;;;5051769;28;20199;-82
2023/01/30 05:04:13;;;;;;;16.80;10.17;;;-0.40;99.90;;;;;;5053474;28;20193;-83
2023/01/30 05:06:39;;;;;;;19.13;10.33;;;-0.40;99.90;;;;;;5053009;28;20206;-83
2023/01/30 05:09:05;;;;;;;16.33;9.43;;;-0.30;99.90;;;;;;5051791;28;20643;-82
2023/01/30 05:11:31;;;;;;;17.90;9.90;;;-0.30;99.90;;;;;;5051727;28;20730;-84
2023/01/30 05:13:57;;;;;;;17.27;9.90;;;-0.30;99.90;;;;;;5051602;28;20196;-84
2023/01/30 05:16:23;;;;;;;13.17;8.67;;;-0.30;99.90;;;;;;5051649;28;20216;-83
2023/01/30 05:18:50;;;;;;;14.53;8.47;;;-0.30;99.90;;;;;;5051669;28;20174;-82
2023/01/30 05:21:19;;;;;;;16.93;8.87;;;-0.30;99.90;;;;;;5051479;28;20189;-83
2023/01/30 05:23:44;;;;;;;15.43;9.07;;;-0.30;99.90;;;;;;5051361;28;20204;-83
2023/01/30 05:26:11;;;;;;;14.07;8.50;;;-0.30;99.90;;;;;;5053022;28;20173;-83
2023/01/30 05:28:37;;;;;;;16.33;9.00;;;-0.20;99.90;;;;;;5051787;28;20209;-85
2023/01/30 05:31:12;;;;;;;15.77;9.50;;;-0.20;99.90;;;;;;5052618;28;20185;-83
2023/01/30 05:33:39;;;;;;;18.10;10.83;;;-0.20;99.90;;;;;;5053013;28;20211;-83
2023/01/30 05:36:06;;;;;;;15.77;9.67;;;-0.20;99.90;;;;;;5052741;28;20181;-84
2023/01/30 05:38:31;;;;;;;17.47;10.30;;;-0.20;99.90;;;;;;5052753;28;20603;-83
2023/01/30 05:41:07;;;;;;;18.67;10.27;;;-0.20;99.90;;;;;;5051438;28;20718;-83
2023/01/30 05:43:34;;;;;;;14.13;9.00;;;-0.20;99.90;;;;;;5052552;28;20235;-83
2023/01/30 05:46:01;;;;;;;19.37;10.57;;;-0.20;99.90;;;;;;5051619;28;20190;-82
2023/01/30 05:48:27;;;;;;;17.63;10.10;;;-0.20;99.90;;;;;;5051901;28;20303;-83
2023/01/30 05:50:55;;;;;;;19.93;10.67;;;-0.10;99.90;;;;;;5052714;28;20180;-83
2023/01/30 05:53:22;;;;;;;22.93;11.73;;;-0.10;99.90;;;;;;5052641;28;20670;-83
2023/01/30 05:55:59;;;;;;;19.37;10.37;;;-0.10;99.90;;;;;;5051452;28;20180;-83
2023/01/30 05:58:25;;;;;;;19.90;11.13;;;-0.20;99.90;;;;;;5052694;28;20183;-83
2023/01/30 06:00:51;;;;;;;21.27;11.27;;;-0.20;99.90;;;;;;5052826;28;20602;-83
2023/01/30 06:03:17;;;;;;;20.23;11.23;;;-0.10;99.90;;;;;;5052769;28;20646;-83
2023/01/30 06:05:43;;;;;;;18.27;11.00;;;-0.20;99.90;;;;;;5053167;28;20543;-83
2023/01/30 06:08:08;;;;;;;21.93;11.90;;;-0.20;99.90;;;;;;5051019;28;20208;-82
2023/01/30 06:10:35;;;;;;;19.27;10.27;;;-0.20;99.90;;;;;;5050503;28;20175;-82
2023/01/30 06:13:00;;;;;;;18.57;10.40;;;-0.20;99.90;;;;;;5051125;28;20275;-82
2023/01/30 06:15:26;;;;;;;20.60;11.20;;;-0.20;99.90;;;;;;5052182;28;20633;-82
2023/01/30 06:17:52;;;;;;;20.50;11.17;;;-0.20;99.90;;;;;;5052269;28;20191;-82
2023/01/30 06:20:17;;;;;;;18.97;10.40;;;-0.20;99.90;;;;;;5050434;28;20186;-82
2023/01/30 06:22:43;;;;;;;20.67;11.87;;;-0.10;99.90;;;;;;5050838;28;20210;-84
2023/01/30 06:25:09;;;;;;;22.20;11.20;;;-0.20;99.90;;;;;;5050845;28;20691;-81
2023/01/30 06:27:34;;;;;;;18.60;10.90;;;-0.20;99.90;;;;;;5051940;28;20723;-81
2023/01/30 06:30:00;;;;;;;17.37;10.10;;;-0.20;99.90;;;;;;5050371;28;20206;-80
2023/01/30 06:32:26;;;;;;;17.20;10.20;;;-0.10;99.90;;;;;;5050390;28;20175;-82
2023/01/30 06:34:51;;;;;;;20.10;10.70;;;-0.10;99.90;;;;;;5051969;28;20626;-80
2023/01/30 06:37:17;;;;;;;18.60;10.30;;;-0.10;99.90;;;;;;5051887;28;20180;-82
2023/01/30 06:39:42;;;;;;;14.63;7.80;;;0.00;99.90;;;;;;5051745;28;20661;-82
2023/01/30 06:42:08;;;;;;;15.53;8.93;;;0.00;99.90;;;;;;5050680;28;20641;-83
2023/01/30 06:44:33;;;;;;;21.00;9.50;;;0.00;99.90;;;;;;5051467;28;20596;-81
2023/01/30 06:46:59;;;;;;;16.77;9.40;;;0.00;99.90;;;;;;5051528;28;20252;-82
2023/01/30 06:49:24;;;;;;;19.97;10.70;;;0.00;99.90;;;;;;5051615;28;20257;-82
2023/01/30 06:51:50;;;;;;;16.33;10.13;;;0.00;99.90;;;;;;5052243;28;20175;-81
2023/01/30 06:54:15;;;;;;;16.07;8.73;;;0.00;99.90;;;;;;5056240;28;20199;-81
2023/01/30 06:56:41;;;;;;;19.10;10.80;;;0.00;99.90;;;;;;5056860;28;20190;-81
2023/01/30 06:59:07;;;;;;;18.60;10.73;;;0.10;99.90;;;;;;5057376;28;20203;-81
2023/01/30 07:01:32;;;;;;;16.00;8.93;;;0.10;99.90;;;;;;5054938;28;20278;-83
2023/01/30 07:03:58;;;;;;;17.73;10.17;;;0.10;99.90;;;;;;5055282;28;20203;-83
2023/01/30 07:06:26;;;;;;;18.73;10.40;;;0.10;99.90;;;;;;5053735;28;20233;-83
2023/01/30 07:08:52;;;;;;;14.47;8.60;;;0.10;99.90;;;;;;5053814;28;20188;-82
2023/01/30 07:11:18;;;;;;;18.77;10.63;;;0.10;99.90;;;;;;5052279;28;20267;-82
2023/01/30 07:13:43;;;;;;;21.13;11.73;;;0.10;99.90;;;;;;5044579;28;20289;-82
2023/01/30 07:16:09;;;;;;;16.87;10.67;;;0.10;99.90;;;;;;5038580;28;20271;-82
2023/01/30 07:18:35;;;;;;;16.43;9.17;;;0.10;99.90;;;;;;5033622;28;20206;-81
2023/01/30 07:21:00;;;;;;;19.10;11.20;;;0.10;99.90;;;;;;5033609;28;20192;-82
2023/01/30 07:23:26;;;;;;;20.47;11.30;;;0.00;99.90;;;;;;5033936;28;20176;-85
2023/01/30 07:25:51;;;;;;;20.63;10.07;;;0.00;99.90;;;;;;5034112;28;20207;-83
2023/01/30 07:28:17;;;;;;;18.63;10.60;;;0.00;99.90;;;;;;5033774;28;20289;-83
2023/01/30 07:30:43;;;;;;;21.03;11.17;;;0.00;99.90;;;;;;5033402;28;20171;-84
2023/01/30 07:33:08;;;;;;;19.90;9.70;;;0.10;99.90;;;;;;5034601;28;20164;-82
2023/01/30 07:35:36;;;;;;;16.37;8.93;;;0.00;99.90;;;;;;5034514;28;20177;-86
2023/01/30 07:38:02;;;;;;;17.37;8.57;;;0.10;99.90;;;;;;5033544;28;20674;-82
2023/01/30 07:40:27;;;;;;;18.00;10.00;;;0.10;99.90;;;;;;5033028;28;20210;-83
2023/01/30 07:43:01;;;;;;;20.40;10.67;;;0.10;99.90;;;;;;5036155;28;20189;-83
2023/01/30 07:45:30;;;;;;;17.47;9.23;;;0.10;99.90;;;;;;5044411;28;20219;-82
2023/01/30 07:47:56;;;;;;;16.60;9.00;;;0.10;99.90;;;;;;5054298;28;20208;-81
2023/01/30 07:50:22;;;;;;;20.27;9.40;;;0.10;99.90;;;;;;5054228;28;20196;-82
2023/01/30 07:52:47;;;;;;;17.90;8.43;;;0.20;99.90;;;;;;5047449;28;20189;-82
2023/01/30 07:55:13;;;;;;;14.47;8.57;;;0.20;99.90;;;;;;5050984;28;20197;-84
2023/01/30 07:57:39;;;;;;;17.03;9.80;;;0.20;99.90;;;;;;5054238;28;20656;-82
2023/01/30 08:00:06;;;;;;;14.23;8.00;;;0.20;99.90;;;;;;5054065;28;20182;-83
2023/01/30 08:02:32;;;;;;;16.50;9.77;;;0.20;99.90;;;;;;5053106;28;20222;-82
2023/01/30 08:04:57;;;;;;;14.77;7.80;;;0.10;99.90;;;;;;5053819;28;20196;-82
2023/01/30 08:07:23;;;;;;;13.40;7.90;;;0.20;99.90;;;;;;5053843;28;20203;-81
2023/01/30 08:09:48;;;;;;;14.87;8.37;;;0.20;99.90;;;;;;5052247;28;20223;-81
2023/01/30 08:12:14;;;;;;;15.20;8.60;;;0.10;99.90;;;;;;5051996;28;20187;-81
2023/01/30 08:14:39;;;;;;;15.47;8.23;;;0.20;99.90;;;;;;5053786;28;20244;-81
2023/01/30 08:17:05;;;;;;;15.00;9.13;;;0.20;99.90;;;;;;5052547;28;20202;-81
2023/01/30 08:19:30;;;;;;;11.57;7.60;;;0.20;99.90;;;;;;5052360;28;20223;-81
2023/01/30 08:21:58;;;;;;;15.27;8.50;;;0.30;99.90;;;;;;5053482;28;20184;-82
2023/01/30 08:24:23;;;;;;;14.97;9.47;;;0.30;99.90;;;;;;5052016;28;20212;-81
2023/01/30 08:26:49;;;;;;;11.87;7.93;;;0.30;99.90;;;;;;5047955;28;20265;-80
2023/01/30 08:29:15;;;;;;;13.47;8.03;;;0.30;99.90;;;;;;5049594;28;20190;-82
2023/01/30 08:31:41;;;;;;;12.97;7.57;;;0.30;99.90;;;;;;5039523;28;20334;-80
2023/01/30 08:34:06;;;;;;;14.07;8.27;;;0.30;99.90;;;;;;5031881;28;20288;-81
2023/01/30 08:36:32;;;;;;;16.07;9.17;;;0.40;99.90;;;;;;5033412;28;20176;-81
2023/01/30 08:38:58;;;;;;;15.27;8.37;;;0.40;99.90;;;;;;5031714;28;20181;-82
2023/01/30 08:41:26;;;;;;;14.63;8.00;;;0.40;99.90;;;;;;5031095;28;20212;-82
2023/01/30 08:43:51;;;;;;;13.23;8.40;;;0.40;99.90;;;;;;5057403;22;20282;-82
2023/01/30 08:46:17;;;;;;;14.53;8.23;;;0.40;99.90;;;;;;5053192;28;20327;-82
2023/01/30 08:48:43;;;;;;;14.47;7.93;;;0.40;99.90;;;;;;5068478;28;20204;-82
2023/01/30 08:51:09;;;;;;;12.43;7.67;;;0.40;99.90;;;;;;5053028;28;20175;-85
2023/01/30 08:53:35;;;;;;;12.07;6.93;;;0.40;99.90;;;;;;5053070;28;20172;-82
2023/01/30 08:56:00;;;;;;;11.50;7.03;;;0.40;99.90;;;;;;5051901;28;20283;-82
2023/01/30 08:58:26;;;;;;;13.07;7.67;;;0.40;99.90;;;;;;5051498;28;20230;-82
2023/01/30 09:00:51;;;;;;;12.67;6.50;;;0.40;99.90;;;;;;5051742;28;20177;-85
2023/01/30 09:03:17;;;;;;;11.73;6.90;;;0.40;99.90;;;;;;5052928;28;20178;-83
2023/01/30 09:05:43;;;;;;;13.10;6.33;;;0.40;99.90;;;;;;5052810;28;20195;-82
2023/01/30 09:08:08;;;;;;;10.20;6.53;;;0.50;99.90;;;;;;5051514;28;20204;-82
2023/01/30 09:10:34;;;;;;;11.20;6.90;;;0.50;99.90;;;;;;5051295;28;20172;-83
2023/01/30 09:13:00;;;;;;;9.93;6.33;;;0.50;99.90;;;;;;5051363;28;20672;-83
2023/01/30 09:15:26;;;;;;;10.63;6.53;;;0.50;99.90;;;;;;5051217;28;20209;-82
2023/01/30 09:17:51;;;;;;;11.03;6.83;;;0.50;99.90;;;;;;5052682;28;20630;-82
2023/01/30 09:20:19;;;;;;;10.37;6.63;;;0.50;99.90;;;;;;5052020;28;20270;-82
2023/01/30 09:22:45;;;;;;;11.73;6.77;;;0.50;99.90;;;;;;5052209;28;20168;-83
2023/01/30 09:25:11;;;;;;;11.47;6.83;;;0.50;99.90;;;;;;5051179;28;20196;-84
2023/01/30 09:27:36;;;;;;;10.33;6.53;;;0.50;99.90;;;;;;5052313;28;20258;-82
2023/01/30 09:30:04;;;;;;;10.00;6.43;;;0.50;99.90;;;;;;5051048;28;20268;-83
2023/01/30 09:32:30;;;;;;;10.60;7.00;;;0.60;99.90;;;;;;5052409;28;20183;-83
2023/01/30 09:34:55;;;;;;;11.33;6.33;;;0.60;99.90;;;;;;5051064;28;20686;-83
2023/01/30 09:37:21;;;;;;;10.67;6.77;;;0.60;99.90;;;;;;5052172;28;20215;-82
2023/01/30 09:39:46;;;;;;;9.70;5.90;;;0.60;99.90;;;;;;5051746;28;20184;-82
2023/01/30 09:42:50;;;;;;;10.17;6.50;;;0.60;99.90;;;;;;5051045;28;20627;-83
2023/01/30 09:45:29;;;;;;;9.00;6.30;;;0.60;99.90;;;;;;5005755;28;20228;-83
2023/01/30 09:48:16;;;;;;;10.90;7.07;;;0.60;99.90;;;;;;5052058;28;20203;-83
2023/01/30 09:51:06;;;;;;;12.10;6.90;;;0.70;99.90;;;;;;5051339;28;20255;-83
2023/01/30 09:53:46;;;;;;;11.57;7.40;;;0.80;99.90;;;;;;5050990;28;20173;-82
2023/01/30 09:56:12;;;;;;;11.13;6.83;;;0.80;99.90;;;;;;5050777;28;20172;-82
2023/01/30 09:58:46;;;;;;;11.83;7.47;;;0.80;99.90;;;;;;5050624;28;20720;-85
2023/01/30 10:01:50;;;;;;;11.27;6.83;;;0.80;99.90;;;;;;5050136;28;20178;-85
2023/01/30 10:04:30;;;;;;;11.57;7.27;;;0.90;99.90;;;;;;5052117;28;20279;-82
2023/01/30 10:07:20;;;;;;;12.47;7.30;;;0.80;99.90;;;;;;5050731;28;20250;-82
2023/01/30 10:10:03;;;;;;;10.57;6.47;;;0.90;99.90;;;;;;5050537;28;20173;-82
2023/01/30 10:13:10;;;;;;;9.13;5.97;;;0.90;99.90;;;;;;5052169;28;20269;-83
2023/01/30 10:15:41;;;;;;;10.27;7.00;;;0.90;99.90;;;;;;5051760;28;20273;-83
2023/01/30 10:18:15;;;;;;;10.43;4.70;;;1.00;99.90;;;;;;5050771;28;20613;-82
2023/01/30 10:21:03;;;;;;;10.67;6.03;;;1.10;99.90;;;;;;5051219;28;20275;-82
2023/01/30 10:23:29;;;;;;;8.17;5.63;;;1.20;99.90;;;;;;5050279;28;20184;-85
2023/01/30 10:26:07;;;;;;;9.47;6.13;;;1.30;99.90;;;;;;5051805;28;20199;-82
2023/01/30 10:28:42;;;;;;;7.57;4.43;;;1.40;99.90;;;;;;5051992;28;20238;-83
2023/01/30 10:31:12;;;;;;;6.47;3.80;;;1.60;99.90;;;;;;5050215;28;20169;-82
2023/01/30 10:33:49;;;;;;;5.60;4.10;;;1.60;99.90;;;;;;5050748;28;20177;-83
2023/01/30 10:36:26;;;;;;;6.87;3.97;;;1.60;99.90;;;;;;5054234;28;20601;-82
2023/01/30 10:38:55;;;;;;;5.43;3.80;;;1.50;99.90;;;;;;5054358;28;20264;-82
2023/01/30 10:41:36;;;;;;;5.90;3.80;;;1.40;99.90;;;;;;5053817;28;20181;-82
2023/01/30 10:44:13;;;;;;;4.97;3.70;;;1.50;99.90;;;;;;5055312;28;20258;-83
2023/01/30 10:46:50;;;;;;;5.20;3.87;;;1.50;99.90;;;;;;5054195;28;20173;-82
2023/01/30 10:49:15;;;;;;;5.93;3.93;;;1.50;99.90;;;;;;5055633;28;20208;-82
2023/01/30 10:52:15;;;;;;;5.40;3.83;;;1.60;99.90;;;;;;5053811;28;20198;-82
2023/01/30 10:54:53;;;;;;;5.07;3.80;;;1.60;99.90;;;;;;5054020;28;20186;-83
2023/01/30 10:57:51;;;;;;;4.87;3.37;;;1.70;99.90;;;;;;5053943;28;20204;-83
2023/01/30 11:00:28;;;;;;;4.10;3.20;;;1.80;99.90;;;;;;5053533;28;20260;-83
2023/01/30 11:03:08;;;;;;;4.83;3.00;;;1.90;99.90;;;;;;5055291;28;20228;-83
2023/01/30 11:05:58;;;;;;;3.90;2.87;;;2.00;99.90;;;;;;5054972;28;20204;-82
2023/01/30 11:08:30;;;;;;;3.13;2.67;;;2.30;99.90;;;;;;5054062;28;20198;-82
2023/01/30 11:10:57;;;;;;;3.07;2.50;;;2.50;99.90;;;;;;5053495;28;20169;-79
2023/01/30 11:13:32;;;;;;;3.50;2.50;;;2.50;99.90;;;;;;5053876;28;20173;-83
2023/01/30 11:16:04;;;;;;;2.97;1.93;;;2.50;99.90;;;;;;5054760;28;20185;-83
2023/01/30 11:18:30;;;;;;;2.70;2.13;;;2.60;99.90;;;;;;5053512;28;20170;-83
2023/01/30 11:21:09;;;;;;;2.57;1.90;;;2.50;99.90;;;;;;5054479;28;20223;-83
2023/01/30 11:23:40;;;;;;;2.30;2.00;;;2.40;99.90;;;;;;5053740;28;20177;-83
2023/01/30 11:26:06;;;;;;;2.37;2.00;;;2.30;99.90;;;;;;5054756;28;20184;-84
2023/01/30 11:28:40;;;;;;;2.53;2.07;;;2.30;99.90;;;;;;5053648;28;20198;-85
2023/01/30 11:31:19;;;;;;;2.40;2.00;;;2.30;99.90;;;;;;5052708;28;20712;-85
2023/01/30 11:33:57;;;;;;;4.87;1.90;;;2.30;99.90;;;;;;5053418;28;20170;-83
2023/01/30 11:36:29;;;;;;;2.07;1.57;;;2.40;99.90;;;;;;5053485;28;20541;-83
2023/01/30 11:39:12;;;;;;;3.97;2.20;;;2.50;99.90;;;;;;5054572;28;20175;-84
2023/01/30 11:41:42;;;;;;;1.80;1.50;;;2.50;99.90;;;;;;5052656;28;20175;-84
2023/01/30 11:44:10;;;;;;;1.63;1.53;;;2.50;99.90;;;;;;5054694;28;20205;-85
2023/01/30 11:46:38;;;;;;;2.93;1.70;;;2.50;99.90;;;;;;5052150;28;20260;-83
2023/01/30 11:49:14;;;;;;;2.23;2.03;;;2.30;99.90;;;;;;5053165;28;20224;-83
2023/01/30 11:51:43;;;;;;;3.83;3.10;;;2.20;99.90;;;;;;5054075;28;20185;-83
2023/01/30 11:54:17;;;;;;;4.43;3.13;;;2.30;99.90;;;;;;5054187;28;20563;-83
2023/01/30 11:56:51;;;;;;;3.87;3.00;;;2.60;99.90;;;;;;5053199;28;20181;-84
2023/01/30 11:59:35;;;;;;;4.43;3.20;;;3.00;99.90;;;;;;5052867;28;20712;-84
2023/01/30 12:02:31;;;;;;;6.87;4.90;;;3.30;99.90;;;;;;5052891;28;20166;-84
2023/01/30 12:05:03;;;;;;;4.27;3.33;;;3.20;99.90;;;;;;5032177;28;20209;-84
2023/01/30 12:07:32;;;;;;;8.77;5.97;;;3.00;99.90;;;;;;5053893;28;20194;-83
2023/01/30 12:09:58;;;;;;;4.97;3.70;;;3.00;99.90;;;;;;5051991;28;20250;-83
2023/01/30 12:12:44;;;;;;;7.83;4.67;;;3.10;99.90;;;;;;5053742;28;20170;-83
2023/01/30 12:15:15;;;;;;;9.40;5.63;;;3.00;99.90;;;;;;5052602;28;20570;-85
2023/01/30 12:18:20;;;;;;;3.83;3.13;;;2.80;99.90;;;;;;5054038;28;20182;-83
2023/01/30 12:21:19;;;;;;;4.80;3.47;;;2.90;99.90;;;;;;5051698;28;20177;-85
2023/01/30 12:23:55;;;;;;;6.27;4.30;;;3.00;99.90;;;;;;5026729;28;20250;-84
2023/01/30 12:26:30;;;;;;;6.77;5.33;;;3.00;99.90;;;;;;5052123;28;20236;-83
2023/01/30 12:29:37;;;;;;;5.80;4.00;;;3.20;99.90;;;;;;5052132;28;20198;-86
2023/01/30 12:32:14;;;;;;;9.00;5.83;;;3.30;99.90;;;;;;5048273;28;20182;-84
2023/01/30 12:34:44;;;;;;;10.50;6.40;;;3.20;99.90;;;;;;5053285;28;20246;-84
2023/01/30 12:37:59;;;;;;;7.33;5.40;;;3.30;99.90;;;;;;5052002;28;20187;-84
2023/01/30 12:40:43;;;;;;;7.57;5.07;;;3.60;99.90;;;;;;5051475;28;20681;-84
2023/01/30 12:43:18;;;;;;;9.70;5.67;;;3.80;99.90;;;;;;5052852;28;20626;-86
2023/01/30 12:46:08;;;;;;;11.60;4.90;;;4.20;99.90;;;;;;5051192;28;20265;-84
2023/01/30 12:48:45;;;;;;;10.70;6.30;;;4.30;99.90;;;;;;5052128;28;20199;-84
2023/01/30 12:51:48;;;;;;;6.33;3.17;;;4.40;99.90;;;;;;5050035;28;20187;-84
2023/01/30 12:54:41;;;;;;;5.17;2.30;;;4.30;99.90;;;;;;4952311;28;20676;-84
2023/01/30 12:57:14;;;;;;;7.43;3.93;;;4.30;99.90;;;;;;5031442;28;20214;-85
2023/01/30 12:59:49;;;;;;;5.10;3.07;;;4.20;99.90;;;;;;5030601;28;20180;-84
2023/01/30 13:02:43;;;;;;;6.97;3.43;;;4.20;99.90;;;;;;5031311;28;20181;-85